Time;durP1;ratioP1;P1;durP2;ratioP2;P2;SDS_P1;SDS_P2;PMS_P1;PMS_P2;Temp;Humidity;BMP_temperature;BMP_pressure;BME280_temperature;BME280_humidity;BME280_pressure;Samples;Min_cycle;Max_cycle;Signal;HPM_P1;HPM_P2
2020/12/05 00:01:59;;;;;;;3.95;2.60;;;11.30;49.10;;;;;;5059251;28;20063;-80
2020/12/05 00:04:25;;;;;;;4.95;3.53;;;11.30;49.10;;;;;;5060437;28;20051;-82
2020/12/05 00:06:51;;;;;;;6.13;3.47;;;11.30;49.10;;;;;;5058494;28;20037;-80
2020/12/05 00:09:16;;;;;;;2.33;1.70;;;11.40;49.00;;;;;;5060028;28;20075;-81
2020/12/05 00:11:42;;;;;;;4.25;1.88;;;11.40;49.10;;;;;;5058610;28;20021;-86
2020/12/05 00:14:08;;;;;;;2.65;1.58;;;11.40;49.00;;;;;;5059908;28;20036;-77
2020/12/05 00:16:34;;;;;;;3.47;2.30;;;11.40;48.90;;;;;;5070476;28;20104;-84
2020/12/05 00:19:00;;;;;;;3.85;2.70;;;11.40;48.90;;;;;;5073287;28;20009;-81
2020/12/05 00:21:26;;;;;;;3.45;1.52;;;11.40;48.80;;;;;;5073652;28;20013;-82
2020/12/05 00:23:52;;;;;;;2.90;1.58;;;11.40;48.70;;;;;;5071615;28;20398;-78
2020/12/05 00:26:20;;;;;;;5.03;3.50;;;11.50;48.70;;;;;;5070851;28;20029;-84
2020/12/05 00:28:48;;;;;;;2.33;1.40;;;11.50;48.80;;;;;;5071581;28;20025;-80
2020/12/05 00:31:15;;;;;;;2.58;1.30;;;11.50;48.70;;;;;;5071879;28;20025;-79
2020/12/05 00:33:41;;;;;;;1.75;1.40;;;11.50;48.50;;;;;;5064600;28;20025;-81
2020/12/05 00:36:08;;;;;;;3.10;2.15;;;11.60;48.50;;;;;;5064791;28;20021;-80
2020/12/05 00:38:35;;;;;;;2.38;1.30;;;11.60;48.50;;;;;;5063651;28;20028;-81
2020/12/05 00:41:04;;;;;;;3.05;1.65;;;11.60;48.50;;;;;;5071504;28;20032;-78
2020/12/05 00:43:35;;;;;;;4.43;2.47;;;11.60;48.30;;;;;;5083172;28;20048;-80
2020/12/05 00:46:04;;;;;;;2.75;1.60;;;11.60;48.60;;;;;;5076952;28;20074;-80
2020/12/05 00:48:31;;;;;;;3.80;1.88;;;11.70;48.40;;;;;;5063546;28;20021;-79
2020/12/05 00:50:57;;;;;;;2.42;1.52;;;11.70;48.20;;;;;;5055993;28;20032;-83
2020/12/05 00:53:23;;;;;;;1.55;1.20;;;11.70;48.20;;;;;;5055630;28;20492;-81
2020/12/05 00:55:49;;;;;;;2.53;1.40;;;11.80;48.20;;;;;;5069266;28;20044;-80
2020/12/05 00:58:15;;;;;;;1.75;1.40;;;11.80;48.20;;;;;;5076483;28;20028;-82
2020/12/05 01:00:41;;;;;;;4.22;1.63;;;11.80;48.20;;;;;;5070575;28;20028;-84
2020/12/05 01:03:07;;;;;;;2.13;1.40;;;11.80;48.00;;;;;;5062151;28;20025;-86
2020/12/05 01:05:35;;;;;;;2.47;1.52;;;11.80;47.90;;;;;;5056722;28;20025;-81
2020/12/05 01:08:02;;;;;;;6.00;2.92;;;11.80;48.00;;;;;;5056116;28;20033;-82
2020/12/05 01:10:29;;;;;;;2.78;1.80;;;11.80;47.90;;;;;;5055659;28;20017;-82
2020/12/05 01:12:54;;;;;;;3.40;1.30;;;11.90;48.00;;;;;;5055935;28;20017;-81
2020/12/05 01:15:20;;;;;;;2.13;1.55;;;11.90;48.10;;;;;;5057639;28;20029;-80
2020/12/05 01:17:46;;;;;;;2.10;1.50;;;11.90;48.00;;;;;;5073013;28;20027;-81
2020/12/05 01:20:12;;;;;;;1.27;0.77;;;12.00;48.00;;;;;;5076058;28;20501;-83
2020/12/05 01:22:37;;;;;;;1.50;1.23;;;12.00;48.00;;;;;;5066854;28;20110;-80
2020/12/05 01:25:04;;;;;;;1.70;1.10;;;12.10;48.00;;;;;;5056382;28;20029;-83
2020/12/05 01:27:29;;;;;;;5.50;2.15;;;12.10;47.90;;;;;;5056132;28;20029;-84
2020/12/05 01:29:56;;;;;;;2.33;1.42;;;12.20;47.80;;;;;;5055781;28;20482;-88
2020/12/05 01:32:21;;;;;;;5.35;1.50;;;12.20;47.80;;;;;;5055849;28;20021;-80
2020/12/05 01:34:47;;;;;;;3.50;1.27;;;12.20;47.50;;;;;;5056945;28;20021;-84
2020/12/05 01:37:13;;;;;;;1.52;1.00;;;12.30;47.70;;;;;;5055152;28;20417;-83
2020/12/05 01:39:39;;;;;;;2.40;1.10;;;12.40;47.60;;;;;;5054980;28;20074;-80
2020/12/05 01:42:05;;;;;;;1.00;0.80;;;12.40;47.50;;;;;;5055943;28;20021;-82
2020/12/05 01:44:31;;;;;;;1.67;1.10;;;12.50;47.50;;;;;;5061508;28;20031;-83
2020/12/05 01:46:57;;;;;;;4.85;1.42;;;12.50;47.20;;;;;;5076227;28;20062;-83
2020/12/05 01:49:24;;;;;;;1.88;0.88;;;12.50;47.30;;;;;;5061355;28;20071;-80
2020/12/05 01:51:51;;;;;;;2.17;1.58;;;12.50;47.30;;;;;;5059712;28;20028;-81
2020/12/05 01:54:18;;;;;;;3.47;1.30;;;12.60;47.30;;;;;;5058585;28;20047;-81
2020/12/05 01:56:48;;;;;;;6.80;3.40;;;12.60;47.00;;;;;;5059388;28;20025;-83
2020/12/05 01:59:14;;;;;;;5.72;2.60;;;12.60;47.20;;;;;;5059727;28;20031;-83
2020/12/05 02:01:42;;;;;;;2.80;1.38;;;12.60;47.00;;;;;;5060228;28;20088;-80
2020/12/05 02:04:08;;;;;;;3.03;1.35;;;12.60;47.00;;;;;;5057584;28;20029;-81
2020/12/05 02:07:12;;;;;;;1.33;1.00;;;12.60;46.80;;;;;;5056930;28;20017;-84
2020/12/05 02:09:47;;;;;;;1.55;1.00;;;12.60;47.00;;;;;;5054919;28;20025;-82
2020/12/05 02:12:48;;;;;;;2.22;1.20;;;12.70;46.90;;;;;;5056529;28;20035;-83
2020/12/05 02:15:23;;;;;;;1.90;1.30;;;12.70;46.90;;;;;;5014117;28;20030;-83
2020/12/05 02:18:01;;;;;;;1.17;1.00;;;12.80;46.80;;;;;;5014485;28;20440;-85
2020/12/05 02:20:29;;;;;;;5.10;1.33;;;12.80;46.50;;;;;;5014210;28;20488;-83
2020/12/05 02:23:04;;;;;;;2.53;1.17;;;12.80;46.30;;;;;;5013684;28;20183;-81
2020/12/05 02:25:31;;;;;;;2.33;1.05;;;12.80;46.30;;;;;;5018729;28;20025;-83
2020/12/05 02:27:58;;;;;;;1.65;1.10;;;12.90;46.20;;;;;;5033867;28;20109;-86
2020/12/05 02:30:24;;;;;;;2.30;1.20;;;12.80;46.20;;;;;;5033897;28;20033;-81
2020/12/05 02:32:49;;;;;;;1.60;0.95;;;12.90;46.30;;;;;;5034770;28;20113;-83
2020/12/05 02:35:15;;;;;;;2.00;1.08;;;12.90;46.20;;;;;;5033214;28;20041;-83
2020/12/05 02:37:42;;;;;;;1.70;1.23;;;12.90;46.20;;;;;;5033165;28;20029;-83
2020/12/05 02:40:09;;;;;;;1.73;0.90;;;12.80;45.80;;;;;;5032127;28;20056;-84
2020/12/05 02:42:36;;;;;;;2.08;1.10;;;12.80;46.10;;;;;;5052311;28;20037;-83
2020/12/05 02:45:08;;;;;;;3.70;1.20;;;12.80;46.00;;;;;;5057035;28;20029;-80
2020/12/05 02:47:33;;;;;;;1.98;1.00;;;12.80;46.10;;;;;;5053929;28;20518;-80
2020/12/05 02:49:59;;;;;;;1.67;0.93;;;12.80;46.10;;;;;;5055155;28;20121;-81
2020/12/05 02:52:25;;;;;;;1.45;0.93;;;12.70;46.20;;;;;;5057707;28;20505;-84
2020/12/05 02:54:51;;;;;;;2.03;1.33;;;12.70;46.10;;;;;;5058757;28;20100;-85
2020/12/05 02:57:16;;;;;;;1.00;0.88;;;12.70;46.40;;;;;;5077166;28;20040;-87
2020/12/05 02:59:42;;;;;;;1.50;1.10;;;12.70;46.40;;;;;;5077775;28;20036;-86
2020/12/05 03:02:08;;;;;;;1.45;0.93;;;12.60;46.40;;;;;;5079654;28;20020;-83
2020/12/05 03:04:34;;;;;;;1.75;1.20;;;12.60;46.50;;;;;;5076649;28;20025;-84
2020/12/05 03:07:05;;;;;;;2.75;1.00;;;12.50;46.40;;;;;;5059877;28;20029;-80
2020/12/05 03:09:31;;;;;;;2.50;1.30;;;12.50;46.50;;;;;;5074384;28;20528;-82
2020/12/05 03:11:57;;;;;;;1.60;1.17;;;12.50;46.60;;;;;;5077130;28;20004;-81
2020/12/05 03:14:23;;;;;;;4.25;1.40;;;12.40;46.60;;;;;;5061773;28;20021;-82
2020/12/05 03:16:49;;;;;;;1.67;1.15;;;12.50;46.70;;;;;;5056636;28;20125;-83
2020/12/05 03:19:15;;;;;;;2.58;1.02;;;12.50;46.80;;;;;;5056413;28;20040;-83
2020/12/05 03:21:41;;;;;;;1.70;1.13;;;12.40;46.60;;;;;;5058285;28;20037;-85
2020/12/05 03:24:07;;;;;;;1.85;1.20;;;12.40;46.70;;;;;;5058078;28;20076;-87
2020/12/05 03:26:32;;;;;;;4.68;1.17;;;12.40;46.70;;;;;;5056708;28;20040;-85
2020/12/05 03:28:59;;;;;;;3.80;1.23;;;12.30;46.80;;;;;;5058159;28;20017;-81
2020/12/05 03:34:06;;;;;;;3.75;1.27;;;12.30;47.00;;;;;;5050201;28;20056;-86
2020/12/05 03:36:32;;;;;;;2.05;1.30;;;12.20;46.90;;;;;;5049486;28;20076;-82
2020/12/05 03:38:58;;;;;;;2.40;1.00;;;12.20;47.20;;;;;;5042182;28;20025;-79
2020/12/05 03:41:23;;;;;;;2.08;1.25;;;12.10;47.20;;;;;;5055270;28;20029;-86
2020/12/05 03:43:50;;;;;;;1.10;0.85;;;12.10;47.30;;;;;;5056871;28;20025;-85
2020/12/05 03:46:16;;;;;;;1.30;0.98;;;12.10;47.30;;;;;;5056652;28;20116;-80
2020/12/05 03:48:42;;;;;;;1.30;0.90;;;12.00;47.30;;;;;;5061474;28;20020;-80
2020/12/05 03:51:08;;;;;;;3.75;2.20;;;12.00;47.30;;;;;;5075614;28;20028;-83
2020/12/05 03:53:33;;;;;;;2.15;1.35;;;12.00;47.40;;;;;;5073042;28;20083;-86
2020/12/05 03:55:59;;;;;;;1.60;1.02;;;12.00;47.40;;;;;;5066646;28;20109;-80
2020/12/05 03:58:25;;;;;;;2.45;1.30;;;12.10;47.50;;;;;;5067163;28;20078;-85
2020/12/05 04:00:51;;;;;;;1.13;0.77;;;12.10;47.40;;;;;;5054569;28;20040;-82
2020/12/05 04:03:16;;;;;;;1.88;1.20;;;12.10;47.40;;;;;;5056210;28;20448;-84
2020/12/05 04:05:42;;;;;;;3.83;1.75;;;12.10;47.40;;;;;;5055709;28;20036;-82
2020/12/05 04:08:08;;;;;;;3.42;1.55;;;12.10;47.40;;;;;;5056575;28;20440;-86
2020/12/05 04:10:34;;;;;;;3.55;2.00;;;12.20;47.40;;;;;;5056552;28;20092;-84
2020/12/05 04:13:00;;;;;;;3.58;1.63;;;12.20;47.30;;;;;;5056075;28;20025;-85
2020/12/05 04:15:25;;;;;;;3.05;2.00;;;12.20;47.40;;;;;;5070555;28;20082;-82
2020/12/05 04:17:51;;;;;;;1.60;1.08;;;12.20;47.40;;;;;;5076650;28;20028;-80
2020/12/05 04:20:17;;;;;;;2.08;1.40;;;12.20;47.30;;;;;;5076178;28;20048;-81
2020/12/05 04:22:43;;;;;;;3.22;1.52;;;12.10;47.20;;;;;;5076243;28;20044;-81
2020/12/05 04:25:08;;;;;;;2.22;1.20;;;12.10;47.30;;;;;;5064920;28;20402;-82
2020/12/05 04:27:34;;;;;;;1.88;1.23;;;12.20;47.40;;;;;;5054474;28;20047;-86
2020/12/05 04:30:00;;;;;;;2.63;1.10;;;12.10;47.40;;;;;;5054756;28;20029;-83
2020/12/05 04:32:26;;;;;;;1.55;1.10;;;12.20;47.30;;;;;;5054324;28;20032;-82
2020/12/05 04:34:51;;;;;;;2.65;1.50;;;12.20;47.30;;;;;;5053350;28;20017;-87
2020/12/05 04:37:17;;;;;;;1.63;1.10;;;12.20;47.30;;;;;;5055917;28;20028;-85
2020/12/05 04:39:43;;;;;;;3.05;1.30;;;12.20;47.30;;;;;;5055433;28;20031;-83
2020/12/05 04:42:09;;;;;;;2.10;1.20;;;12.20;47.30;;;;;;5055956;28;20539;-81
2020/12/05 04:44:35;;;;;;;1.45;1.00;;;12.10;47.20;;;;;;5055602;28;20542;-84
2020/12/05 04:47:01;;;;;;;1.35;0.85;;;12.10;47.30;;;;;;5054488;28;20060;-85
2020/12/05 04:49:29;;;;;;;1.70;1.13;;;12.10;47.40;;;;;;5054867;28;20102;-85
2020/12/05 04:52:10;;;;;;;2.92;1.65;;;12.10;47.40;;;;;;5055588;28;20017;-81
2020/12/05 04:54:37;;;;;;;2.28;1.10;;;12.00;47.50;;;;;;5054393;28;20028;-83
2020/12/05 04:57:04;;;;;;;2.00;1.27;;;12.00;47.70;;;;;;5054223;28;20055;-85
2020/12/05 04:59:30;;;;;;;1.33;0.88;;;11.90;47.80;;;;;;5056293;28;20078;-81
2020/12/05 05:01:58;;;;;;;1.38;0.95;;;11.90;47.80;;;;;;5054160;28;20025;-83
2020/12/05 05:04:26;;;;;;;2.30;1.20;;;11.80;47.90;;;;;;5054174;28;20029;-86
2020/12/05 05:07:02;;;;;;;4.60;1.02;;;11.80;48.00;;;;;;5055099;28;20490;-87
2020/12/05 05:09:28;;;;;;;2.88;1.17;;;11.70;48.10;;;;;;5054000;28;20028;-85
2020/12/05 05:11:55;;;;;;;2.17;1.38;;;11.70;48.30;;;;;;5055039;28;20020;-84
2020/12/05 05:14:31;;;;;;;1.60;1.10;;;11.60;48.30;;;;;;5054621;28;20029;-83
2020/12/05 05:17:07;;;;;;;2.35;0.88;;;11.60;48.50;;;;;;5055336;28;20033;-85
2020/12/05 05:19:36;;;;;;;2.55;1.20;;;11.60;48.60;;;;;;5056069;28;20036;-84
2020/12/05 05:22:03;;;;;;;1.95;1.27;;;11.60;48.50;;;;;;5053949;28;20083;-82
2020/12/05 05:24:29;;;;;;;3.65;1.42;;;11.70;48.60;;;;;;5053323;28;20053;-86
2020/12/05 05:27:05;;;;;;;4.38;1.40;;;11.70;48.50;;;;;;5053109;28;20121;-84
2020/12/05 05:29:37;;;;;;;2.33;1.25;;;11.80;48.50;;;;;;5053981;28;20029;-80
2020/12/05 05:32:11;;;;;;;2.25;1.35;;;11.90;48.40;;;;;;5054988;28;20020;-83
2020/12/05 05:34:37;;;;;;;2.20;1.60;;;11.90;48.20;;;;;;5043577;28;20486;-83
2020/12/05 05:37:16;;;;;;;1.90;1.20;;;12.00;48.10;;;;;;5034954;28;20036;-82
2020/12/05 05:39:52;;;;;;;2.47;1.27;;;12.00;48.10;;;;;;5034465;28;20053;-81
2020/12/05 05:42:32;;;;;;;1.85;1.20;;;12.10;48.50;;;;;;5053339;28;20025;-84
2020/12/05 05:45:27;;;;;;;1.05;0.80;;;12.10;47.90;;;;;;5053361;28;20025;-82
2020/12/05 05:48:02;;;;;;;2.70;1.50;;;12.10;47.90;;;;;;5054930;28;20063;-81
2020/12/05 05:50:35;;;;;;;3.42;1.17;;;12.10;47.70;;;;;;5054835;28;20047;-85
2020/12/05 05:53:06;;;;;;;3.33;1.17;;;12.10;47.80;;;;;;5054520;28;20401;-85
2020/12/05 05:55:47;;;;;;;2.58;1.30;;;12.10;47.90;;;;;;5055820;28;20107;-84
2020/12/05 05:58:15;;;;;;;1.70;1.10;;;12.10;47.80;;;;;;5054289;28;20021;-80
2020/12/05 06:00:46;;;;;;;3.70;1.40;;;12.20;47.80;;;;;;5069319;28;20033;-86
2020/12/05 06:03:20;;;;;;;2.85;1.10;;;12.20;47.70;;;;;;5070929;28;20032;-85
2020/12/05 06:05:47;;;;;;;;;;;12.30;47.70;;;;;;5075339;28;20501;-80
2020/12/05 06:08:24;;;;;;;1.95;1.10;;;12.30;48.00;;;;;;5074474;28;20334;-84
2020/12/05 06:11:03;;;;;;;1.83;1.27;;;12.40;47.70;;;;;;5033698;28;20029;-82
2020/12/05 06:13:30;;;;;;;1.58;1.40;;;12.50;47.70;;;;;;5034676;28;20474;-81
2020/12/05 06:15:57;;;;;;;2.75;1.42;;;12.50;47.60;;;;;;5036718;28;20025;-84
2020/12/05 06:18:23;;;;;;;2.10;1.27;;;12.50;47.50;;;;;;5076769;28;20025;-87
2020/12/05 06:20:50;;;;;;;4.22;1.30;;;12.50;47.50;;;;;;5077806;28;20035;-84
2020/12/05 06:23:23;;;;;;;3.17;1.17;;;12.50;47.50;;;;;;5064422;28;20079;-80
2020/12/05 06:25:53;;;;;;;1.35;0.95;;;12.60;47.50;;;;;;5059369;28;20031;-82
2020/12/05 06:28:22;;;;;;;2.17;1.17;;;12.60;47.50;;;;;;5059515;28;20359;-86
2020/12/05 06:30:48;;;;;;;2.85;1.10;;;12.60;47.50;;;;;;5059668;28;20029;-84
2020/12/05 06:33:44;;;;;;;2.42;1.20;;;12.60;47.50;;;;;;5064951;28;20373;-83
2020/12/05 06:36:28;;;;;;;2.20;1.23;;;12.70;47.40;;;;;;5037370;28;20034;-85
2020/12/05 06:39:05;;;;;;;1.50;1.00;;;12.70;47.40;;;;;;5056281;28;20037;-85
2020/12/05 06:41:35;;;;;;;2.47;1.48;;;12.80;47.50;;;;;;5058223;28;20028;-86
2020/12/05 06:44:21;;;;;;;10.02;2.20;;;12.80;47.50;;;;;;5056972;28;20036;-80
2020/12/05 06:46:54;;;;;;;2.15;1.27;;;12.90;47.60;;;;;;5072325;28;20069;-84
2020/12/05 06:49:38;;;;;;;2.60;1.10;;;12.90;47.50;;;;;;5077136;28;20094;-84
2020/12/05 06:52:25;;;;;;;1.83;0.90;;;12.80;47.50;;;;;;5063998;28;20037;-86
2020/12/05 06:55:04;;;;;;;2.75;1.20;;;12.80;47.60;;;;;;5056865;28;20473;-85
2020/12/05 06:57:31;;;;;;;1.80;1.08;;;12.80;47.50;;;;;;5056800;28;20493;-86
2020/12/05 07:00:26;;;;;;;2.47;0.95;;;12.80;47.60;;;;;;5056989;28;20029;-87
2020/12/05 07:02:59;;;;;;;2.72;1.73;;;12.70;47.70;;;;;;5056829;28;20031;-80
2020/12/05 07:05:28;;;;;;;3.67;1.33;;;12.70;47.70;;;;;;5057011;28;20114;-83
2020/12/05 07:07:59;;;;;;;1.63;1.02;;;12.70;47.80;;;;;;5057638;28;20621;-87
2020/12/05 07:10:53;;;;;;;1.25;0.90;;;12.70;47.70;;;;;;5057679;28;20029;-87
2020/12/05 07:13:40;;;;;;;1.73;1.15;;;12.70;47.90;;;;;;5055462;28;20017;-84
2020/12/05 07:16:39;;;;;;;1.80;1.10;;;12.70;47.80;;;;;;5052233;28;20041;-85
2020/12/05 07:19:05;;;;;;;2.20;1.00;;;12.70;47.90;;;;;;5035677;28;20112;-85
2020/12/05 07:21:31;;;;;;;1.77;0.95;;;12.70;47.90;;;;;;5048160;28;20104;-86
2020/12/05 07:23:57;;;;;;;2.47;1.27;;;12.70;48.00;;;;;;5056360;28;20079;-83
2020/12/05 07:26:23;;;;;;;1.42;0.93;;;12.80;48.10;;;;;;5055278;28;20139;-86
2020/12/05 07:28:53;;;;;;;1.70;1.20;;;12.80;48.10;;;;;;5056251;28;20017;-88
2020/12/05 07:31:20;;;;;;;2.40;1.70;;;12.80;48.10;;;;;;5056543;28;20112;-85
2020/12/05 07:33:46;;;;;;;1.67;1.13;;;12.80;48.10;;;;;;5054025;28;20100;-83
2020/12/05 07:36:14;;;;;;;4.20;1.45;;;12.80;48.00;;;;;;5035445;28;20029;-84
2020/12/05 07:38:43;;;;;;;3.53;1.60;;;12.70;48.00;;;;;;5053413;28;20480;-84
2020/12/05 07:41:17;;;;;;;4.13;2.35;;;12.70;48.00;;;;;;5055347;28;20021;-86
2020/12/05 07:43:44;;;;;;;2.20;1.30;;;12.70;48.20;;;;;;5055172;28;20028;-82
2020/12/05 07:46:13;;;;;;;4.15;1.67;;;12.70;48.20;;;;;;5056581;28;20033;-88
2020/12/05 07:48:39;;;;;;;3.22;1.30;;;12.70;48.20;;;;;;5056191;28;20527;-86
2020/12/05 07:51:16;;;;;;;1.77;1.10;;;12.70;48.30;;;;;;5054817;28;20082;-86
2020/12/05 07:53:43;;;;;;;1.95;1.20;;;12.80;48.30;;;;;;5054435;28;20108;-86
2020/12/05 07:56:19;;;;;;;3.25;1.30;;;12.80;48.30;;;;;;5057945;28;20029;-85
2020/12/05 07:58:50;;;;;;;2.25;1.08;;;12.80;48.10;;;;;;5070299;28;20079;-84
2020/12/05 08:01:49;;;;;;;2.03;1.30;;;12.90;48.20;;;;;;5054999;28;20520;-82
2020/12/05 08:04:41;;;;;;;2.53;1.50;;;12.90;48.20;;;;;;5039916;28;20095;-85
2020/12/05 08:07:37;;;;;;;3.67;1.80;;;13.00;48.20;;;;;;5054929;28;20551;-84
2020/12/05 08:10:11;;;;;;;2.72;1.30;;;13.00;48.10;;;;;;5037465;28;20528;-82
2020/12/05 08:12:43;;;;;;;1.45;1.15;;;13.00;48.00;;;;;;5056178;28;20014;-86
2020/12/05 08:15:18;;;;;;;1.65;1.20;;;13.10;48.00;;;;;;5055932;28;20029;-82
2020/12/05 08:17:45;;;;;;;3.30;1.60;;;13.10;48.10;;;;;;5055881;28;20108;-86
2020/12/05 08:20:13;;;;;;;2.53;1.25;;;13.10;48.10;;;;;;5054200;28;20041;-85
2020/12/05 08:22:39;;;;;;;2.80;1.33;;;13.10;48.10;;;;;;5054166;28;20048;-82
2020/12/05 08:25:05;;;;;;;1.30;0.90;;;13.10;48.20;;;;;;5055323;28;20090;-86
2020/12/05 08:27:33;;;;;;;1.98;1.40;;;13.00;48.20;;;;;;5056394;28;20047;-85
2020/12/05 08:29:59;;;;;;;2.72;1.73;;;13.00;48.20;;;;;;5056491;28;20042;-87
2020/12/05 08:32:26;;;;;;;2.28;1.42;;;13.00;48.30;;;;;;5051025;28;20108;-86
2020/12/05 08:35:09;;;;;;;2.38;1.52;;;12.90;48.20;;;;;;5035481;28;20052;-86
2020/12/05 08:37:41;;;;;;;2.50;1.50;;;12.90;48.30;;;;;;5053775;28;20108;-84
2020/12/05 08:40:07;;;;;;;3.90;1.20;;;12.90;48.40;;;;;;5054638;28;20032;-87
2020/12/05 08:42:32;;;;;;;2.45;1.02;;;12.90;48.50;;;;;;5055112;28;20025;-84
2020/12/05 08:44:58;;;;;;;5.82;1.92;;;12.90;48.60;;;;;;5055153;28;20056;-81
2020/12/05 08:47:24;;;;;;;5.57;1.60;;;12.80;48.70;;;;;;5055659;28;20024;-83
2020/12/05 08:49:50;;;;;;;2.22;1.50;;;12.80;48.70;;;;;;5065748;28;20021;-84
2020/12/05 08:52:17;;;;;;;7.07;2.50;;;12.80;48.80;;;;;;5074506;28;20025;-83
2020/12/05 08:54:47;;;;;;;5.47;2.28;;;12.80;48.90;;;;;;5075392;28;20020;-85
2020/12/05 08:57:13;;;;;;;5.97;2.63;;;12.70;49.20;;;;;;5062771;28;20033;-80
2020/12/05 08:59:40;;;;;;;5.25;2.50;;;12.70;49.20;;;;;;5054799;28;20028;-80
2020/12/05 09:02:06;;;;;;;11.82;3.03;;;12.70;49.50;;;;;;5054885;28;20021;-85
2020/12/05 09:04:34;;;;;;;5.18;2.55;;;12.80;49.70;;;;;;5054832;28;20028;-83
2020/12/05 09:07:14;;;;;;;3.58;2.20;;;12.80;49.70;;;;;;5052874;28;20478;-83
2020/12/05 09:09:43;;;;;;;4.45;2.80;;;12.80;49.70;;;;;;5053715;28;20029;-82
2020/12/05 09:12:11;;;;;;;3.70;2.20;;;12.80;49.60;;;;;;5054194;28;20021;-80
2020/12/05 09:14:38;;;;;;;5.40;2.58;;;12.80;49.50;;;;;;5054669;28;20052;-81
2020/12/05 09:17:39;;;;;;;5.25;2.53;;;12.90;49.50;;;;;;5053322;28;20099;-82
2020/12/05 09:20:17;;;;;;;3.55;2.25;;;12.90;49.50;;;;;;5012329;28;20038;-86
2020/12/05 09:22:51;;;;;;;4.25;2.40;;;13.00;49.60;;;;;;5012241;28;20904;-86
2020/12/05 09:25:35;;;;;;;3.15;2.17;;;13.00;49.40;;;;;;4995936;28;20149;-82
2020/12/05 09:28:06;;;;;;;5.80;2.57;;;13.00;49.40;;;;;;5012244;28;20056;-82
2020/12/05 09:30:33;;;;;;;3.75;2.28;;;13.10;49.40;;;;;;5012861;28;20331;-81
2020/12/05 09:32:59;;;;;;;3.92;2.03;;;13.10;49.40;;;;;;5012232;28;20022;-80
2020/12/05 09:35:27;;;;;;;2.72;2.05;;;13.20;49.50;;;;;;5012917;28;20129;-80
2020/12/05 09:37:53;;;;;;;4.43;1.98;;;13.30;49.40;;;;;;5012474;28;20080;-84
2020/12/05 09:40:20;;;;;;;6.57;2.28;;;13.30;49.20;;;;;;4995956;28;20026;-85
2020/12/05 09:42:47;;;;;;;5.97;3.00;;;13.30;48.60;;;;;;5012438;28;20116;-83
2020/12/05 09:45:14;;;;;;;8.00;2.60;;;13.40;48.30;;;;;;5012389;28;20080;-80
2020/12/05 09:47:41;;;;;;;4.57;2.90;;;13.30;48.20;;;;;;4995487;28;20026;-82
2020/12/05 09:50:07;;;;;;;5.95;3.67;;;13.30;47.70;;;;;;5011865;28;20076;-85
2020/12/05 09:52:33;;;;;;;5.43;3.53;;;13.20;47.20;;;;;;5011581;28;20026;-83
2020/12/05 09:54:59;;;;;;;8.48;4.80;;;13.20;47.20;;;;;;5012387;28;20048;-84
2020/12/05 09:57:24;;;;;;;9.50;4.22;;;13.20;47.00;;;;;;5047350;28;20037;-80
2020/12/05 09:59:50;;;;;;;10.75;4.75;;;13.20;47.00;;;;;;5057790;28;20034;-81
2020/12/05 10:02:16;;;;;;;18.60;5.53;;;13.20;46.90;;;;;;5032898;28;20026;-83
2020/12/05 10:04:42;;;;;;;8.27;4.80;;;13.10;46.80;;;;;;5048594;28;20031;-81
2020/12/05 10:07:08;;;;;;;9.60;5.75;;;13.00;46.60;;;;;;5045110;28;20039;-79
2020/12/05 10:09:34;;;;;;;12.27;5.38;;;13.00;46.60;;;;;;5053564;28;20017;-79
2020/12/05 10:12:00;;;;;;;15.52;6.22;;;13.00;46.70;;;;;;5054201;28;20052;-86
2020/12/05 10:14:26;;;;;;;15.10;5.97;;;12.90;46.70;;;;;;5061867;28;20025;-79
2020/12/05 10:16:52;;;;;;;13.82;6.90;;;12.90;46.80;;;;;;5069921;28;20089;-79
2020/12/05 10:19:18;;;;;;;10.60;7.03;;;12.90;46.60;;;;;;5069391;28;20052;-79
2020/12/05 10:21:51;;;;;;;11.43;7.18;;;12.90;46.30;;;;;;5069165;28;20028;-78
2020/12/05 10:24:19;;;;;;;13.30;7.90;;;12.90;46.30;;;;;;5068869;28;20052;-79
2020/12/05 10:26:53;;;;;;;16.55;8.77;;;12.90;46.40;;;;;;5064714;28;20033;-80
2020/12/05 10:29:22;;;;;;;;;;;12.80;46.20;;;;;;5060425;28;20041;-83
2020/12/05 10:31:50;;;;;;;14.73;7.95;;;12.80;46.70;;;;;;5060367;28;19904;-83
2020/12/05 10:34:16;;;;;;;15.20;8.27;;;12.70;46.40;;;;;;5054299;28;20091;-80
2020/12/05 10:36:42;;;;;;;15.07;9.20;;;12.70;46.50;;;;;;5047890;28;20104;-83
2020/12/05 10:39:09;;;;;;;14.15;8.60;;;12.60;46.40;;;;;;5044330;28;20124;-83
2020/12/05 10:41:36;;;;;;;23.25;9.60;;;12.60;46.60;;;;;;5046492;28;20083;-80
2020/12/05 10:44:07;;;;;;;17.45;8.88;;;12.50;46.70;;;;;;5051496;28;20082;-85
2020/12/05 10:46:33;;;;;;;18.48;10.73;;;12.60;47.00;;;;;;5051838;28;20025;-80
2020/12/05 10:48:59;;;;;;;18.50;10.55;;;12.50;46.80;;;;;;5051846;28;20120;-80
2020/12/05 10:51:24;;;;;;;17.10;9.52;;;12.50;46.70;;;;;;5053433;28;20025;-84
2020/12/05 10:53:50;;;;;;;16.08;9.27;;;12.50;46.70;;;;;;5071842;28;20040;-85
2020/12/05 10:56:16;;;;;;;20.73;10.15;;;12.50;46.90;;;;;;5073680;28;20103;-86
2020/12/05 10:58:42;;;;;;;16.52;8.85;;;12.50;47.00;;;;;;5073811;28;20021;-83
2020/12/05 11:01:08;;;;;;;15.82;9.88;;;12.50;47.00;;;;;;5062294;28;20031;-84
2020/12/05 11:03:34;;;;;;;17.65;9.73;;;12.50;46.90;;;;;;5059565;28;20025;-83
2020/12/05 11:06:00;;;;;;;21.65;9.85;;;12.50;46.90;;;;;;5056566;28;20424;-82
2020/12/05 11:08:25;;;;;;;27.60;11.13;;;12.50;46.90;;;;;;5057053;28;20055;-82
2020/12/05 11:10:51;;;;;;;21.05;11.30;;;12.50;46.70;;;;;;5056932;28;20025;-83
2020/12/05 11:13:17;;;;;;;21.73;10.68;;;12.40;46.70;;;;;;5067361;28;20035;-83
2020/12/05 11:15:43;;;;;;;19.58;11.27;;;12.40;46.90;;;;;;5067682;28;20025;-84
2020/12/05 11:18:09;;;;;;;17.92;11.00;;;12.40;47.00;;;;;;5055930;28;20108;-79
2020/12/05 11:20:35;;;;;;;18.67;10.70;;;12.40;47.10;;;;;;5056140;28;20111;-83
2020/12/05 11:23:01;;;;;;;22.55;11.20;;;12.40;47.10;;;;;;5057107;28;20088;-86
2020/12/05 11:25:27;;;;;;;22.38;11.40;;;12.40;47.10;;;;;;5057347;28;20029;-82
2020/12/05 11:27:52;;;;;;;23.48;13.30;;;12.40;47.10;;;;;;5055665;28;20476;-81
2020/12/05 11:30:18;;;;;;;19.65;11.77;;;12.40;47.20;;;;;;5057083;28;20383;-81
2020/12/05 11:32:44;;;;;;;19.10;10.15;;;12.40;47.20;;;;;;5063780;28;20064;-80
2020/12/05 11:35:10;;;;;;;21.42;12.43;;;12.40;47.20;;;;;;5056934;28;20017;-82
2020/12/05 11:37:35;;;;;;;21.33;12.23;;;12.40;47.10;;;;;;5053843;28;20078;-83
2020/12/05 11:40:01;;;;;;;18.95;11.05;;;12.30;47.10;;;;;;5057199;28;20573;-82
2020/12/05 11:42:32;;;;;;;22.05;11.52;;;12.30;47.20;;;;;;5055452;28;20029;-80
2020/12/05 11:45:01;;;;;;;18.75;11.40;;;12.30;47.20;;;;;;5042923;28;20398;-82
2020/12/05 11:47:28;;;;;;;17.02;11.25;;;12.30;47.20;;;;;;5055389;28;20029;-80
2020/12/05 11:49:54;;;;;;;20.50;11.77;;;12.30;47.20;;;;;;5072313;28;20032;-82
2020/12/05 11:52:20;;;;;;;20.42;11.70;;;12.30;47.20;;;;;;5057791;28;20367;-81
2020/12/05 11:54:46;;;;;;;21.15;11.75;;;12.30;47.20;;;;;;5055462;28;20021;-82
2020/12/05 11:57:11;;;;;;;20.95;11.98;;;12.30;47.20;;;;;;5050566;28;20030;-84
2020/12/05 11:59:40;;;;;;;19.52;11.95;;;12.30;47.20;;;;;;5055243;28;20478;-80
2020/12/05 12:02:07;;;;;;;24.00;11.93;;;12.30;47.20;;;;;;5054706;28;20167;-84
2020/12/05 12:04:34;;;;;;;22.80;11.73;;;12.30;47.20;;;;;;5054934;28;20029;-81
2020/12/05 12:07:00;;;;;;;18.65;11.52;;;12.30;47.40;;;;;;5056002;28;20056;-82
2020/12/05 12:09:26;;;;;;;17.60;11.48;;;12.40;47.40;;;;;;5045304;28;20029;-80
2020/12/05 12:11:52;;;;;;;22.13;10.50;;;12.40;48.00;;;;;;5036229;28;20025;-82
2020/12/05 12:14:18;;;;;;;19.63;11.30;;;12.40;47.40;;;;;;5054314;28;20107;-81
2020/12/05 12:16:47;;;;;;;18.98;11.00;;;12.50;47.40;;;;;;5055469;28;20036;-80
2020/12/05 12:19:14;;;;;;;23.73;11.50;;;12.50;47.30;;;;;;5055634;28;20033;-79
2020/12/05 12:21:40;;;;;;;15.70;9.48;;;12.50;47.30;;;;;;5054803;28;20040;-83
2020/12/05 12:24:06;;;;;;;17.45;10.10;;;12.50;47.40;;;;;;5055627;28;20060;-83
2020/12/05 12:26:32;;;;;;;18.02;9.95;;;12.50;47.50;;;;;;5054514;28;20478;-82
2020/12/05 12:28:58;;;;;;;18.75;10.88;;;12.60;47.70;;;;;;5054043;28;20498;-81
2020/12/05 12:31:24;;;;;;;22.27;10.70;;;12.60;47.80;;;;;;5055045;28;20433;-82
2020/12/05 12:33:50;;;;;;;17.95;10.60;;;12.60;47.70;;;;;;5056980;28;20356;-81
2020/12/05 12:36:17;;;;;;;16.13;9.93;;;12.60;47.50;;;;;;5058149;28;20100;-81
2020/12/05 12:38:43;;;;;;;30.73;11.27;;;12.70;47.60;;;;;;5056892;28;20086;-82
2020/12/05 12:41:14;;;;;;;17.13;9.68;;;12.60;47.50;;;;;;5054858;28;20501;-86
2020/12/05 12:43:40;;;;;;;17.58;10.43;;;12.60;47.30;;;;;;5056844;28;20056;-83
2020/12/05 12:46:06;;;;;;;17.08;9.38;;;12.70;47.40;;;;;;5056939;28;20071;-83
2020/12/05 12:50:57;;;;;;;16.30;9.73;;;12.70;47.40;;;;;;5052805;28;20049;-81
2020/12/05 12:53:23;;;;;;;30.58;11.68;;;12.70;47.40;;;;;;5042095;28;20025;-83
2020/12/05 12:55:50;;;;;;;34.25;11.13;;;12.70;47.40;;;;;;5068042;28;20036;-82
2020/12/05 12:58:26;;;;;;;11.98;7.85;;;12.80;47.50;;;;;;5057070;28;20029;-82